Time;durP1;ratioP1;P1;durP2;ratioP2;P2;SDS_P1;SDS_P2;PMS_P1;PMS_P2;Temp;Humidity;BMP_temperature;BMP_pressure;BME280_temperature;BME280_humidity;BME280_pressure;Samples;Min_cycle;Max_cycle;Signal;HPM_P1;HPM_P2
2022/07/16 00:03:37;;;;;;;4.60;1.40;;;;;;;-143.84;62.03;45014.78;5091066;28;20403;-80
2022/07/16 00:06:04;;;;;;;4.77;1.83;;;;;;;-143.84;61.87;45018.59;5090582;28;20440;-80
2022/07/16 00:08:31;;;;;;;3.97;1.70;;;;;;;-143.84;61.58;44993.84;5090870;28;20979;-80
2022/07/16 00:10:59;;;;;;;5.60;1.70;;;;;;;-143.84;61.92;44995.75;5090542;28;20489;-80
2022/07/16 00:13:26;;;;;;;3.53;2.00;;;;;;;-143.84;62.00;45016.69;5090470;28;20483;-80
2022/07/16 00:15:55;;;;;;;2.23;1.63;;;;;;;-143.84;61.75;45005.28;5090718;28;20853;-79
2022/07/16 00:21:08;;;;;;;3.27;1.97;;;;;;;-143.84;61.32;44999.56;5094615;28;20423;-80
2022/07/16 00:23:35;;;;;;;7.83;2.40;;;;;;;-143.84;61.05;44997.66;5094191;28;20456;-80
2022/07/16 00:26:02;;;;;;;2.83;1.63;;;;;;;-143.84;60.57;45003.38;5094912;28;20472;-79
2022/07/16 00:28:30;;;;;;;7.93;1.70;;;;;;;-143.84;60.11;45005.28;5094957;28;21021;-81
2022/07/16 00:30:57;;;;;;;7.73;2.00;;;;;;;-143.84;60.01;44991.94;5094975;28;20480;-81
2022/07/16 00:33:24;;;;;;;3.97;1.80;;;;;;;-143.84;59.98;45016.69;5094569;28;20479;-81
2022/07/16 00:35:51;;;;;;;5.83;1.50;;;;;;;-143.84;59.78;44999.56;5095049;28;21186;-80
2022/07/16 00:38:20;;;;;;;2.70;1.50;;;;;;;-143.84;58.93;45003.38;5094594;28;20443;-81
2022/07/16 00:40:47;;;;;;;2.67;1.87;;;;;;;-143.84;58.82;45001.47;5094219;28;20452;-81
2022/07/16 00:43:15;;;;;;;2.27;1.80;;;;;;;-143.84;59.01;44995.75;5094262;28;21249;-80
2022/07/16 00:45:43;;;;;;;4.00;1.77;;;;;;;-143.84;58.40;44991.94;5094289;28;20454;-81
2022/07/16 00:48:11;;;;;;;6.10;1.87;;;;;;;-143.84;58.17;44993.84;5094606;28;20451;-81
2022/07/16 00:50:39;;;;;;;1.60;1.50;;;;;;;-143.84;58.34;45007.19;5094014;28;20443;-81
2022/07/16 00:53:09;;;;;;;3.03;1.93;;;;;;;-143.84;58.25;44986.22;5093447;28;20471;-81
2022/07/16 00:55:39;;;;;;;3.93;1.43;;;;;;;-143.84;58.25;45007.19;5094085;28;20435;-81
2022/07/16 00:58:07;;;;;;;11.70;1.70;;;;;;;-143.84;57.84;45003.38;5093513;28;21165;-81
2022/07/16 01:00:35;;;;;;;5.13;1.90;;;;;;;-143.84;58.01;44991.94;5094291;28;20439;-80
2022/07/16 01:03:05;;;;;;;9.63;1.53;;;;;;;-143.84;58.22;44988.13;5094012;28;20510;-80
2022/07/16 01:05:33;;;;;;;3.97;1.87;;;;;;;-143.84;58.39;44991.94;5094401;28;20435;-81
2022/07/16 01:08:00;;;;;;;3.43;1.50;;;;;;;-143.84;58.36;44995.75;5094346;28;20428;-81
2022/07/16 01:10:28;;;;;;;4.17;1.70;;;;;;;-143.84;58.31;44986.22;5093558;28;21093;-81
2022/07/16 01:12:59;;;;;;;4.37;1.67;;;;;;;-143.84;58.58;44986.22;5093236;28;20464;-81
2022/07/16 01:15:26;;;;;;;8.50;1.60;;;;;;;-143.84;58.43;44997.66;5093673;28;20451;-81
2022/07/16 01:17:54;;;;;;;4.20;2.03;;;;;;;-143.84;58.79;45016.69;5093721;28;20650;-81
2022/07/16 01:20:22;;;;;;;6.40;2.07;;;;;;;-143.84;59.35;45005.28;5094004;28;20530;-81
2022/07/16 01:22:53;;;;;;;5.73;1.60;;;;;;;-143.84;59.61;45007.19;5093468;28;20428;-81
2022/07/16 01:25:22;;;;;;;2.07;1.27;;;;;;;-143.84;59.69;44995.75;5093963;28;20428;-81
2022/07/16 01:27:49;;;;;;;8.53;1.43;;;;;;;-143.84;58.85;44995.75;5093360;28;20473;-81
2022/07/16 01:30:16;;;;;;;5.43;1.83;;;;;;;-143.84;58.49;45009.09;5092829;28;20446;-81
2022/07/16 01:32:43;;;;;;;3.37;1.63;;;;;;;-143.84;58.08;45012.88;5093091;28;20475;-81
2022/07/16 01:35:11;;;;;;;1.70;1.60;;;;;;;-143.84;58.10;45016.69;5093399;28;20436;-81
2022/07/16 01:37:38;;;;;;;2.13;1.90;;;;;;;-143.84;58.60;45005.28;5092843;28;20554;-81
2022/07/16 01:40:07;;;;;;;3.43;1.80;;;;;;;-143.84;58.82;44993.84;5092054;28;20448;-81
2022/07/16 01:42:35;;;;;;;4.97;1.90;;;;;;;-143.84;59.15;44999.56;5092681;28;20489;-81
2022/07/16 01:45:02;;;;;;;2.73;1.77;;;;;;;-143.84;59.21;44972.91;5093105;28;20432;-81
2022/07/16 01:47:29;;;;;;;1.23;1.13;;;;;;;-143.84;59.10;44995.75;5093019;28;20497;-81
2022/07/16 01:49:57;;;;;;;4.90;2.13;;;;;;;-143.84;59.19;45007.19;5093013;28;20953;-81
2022/07/16 01:52:24;;;;;;;3.10;1.60;;;;;;;-143.84;59.44;44991.94;5092406;28;20537;-81
2022/07/16 01:54:54;;;;;;;3.67;1.67;;;;;;;-143.84;59.41;44999.56;5092912;28;20497;-81
2022/07/16 01:57:22;;;;;;;1.63;1.53;;;;;;;-143.84;59.49;45009.09;5092601;28;20479;-81
2022/07/16 01:59:51;;;;;;;7.30;2.00;;;;;;;-143.84;59.24;44997.66;5093013;28;20439;-81
2022/07/16 02:02:18;;;;;;;3.97;1.87;;;;;;;-143.84;59.25;44991.94;5093258;28;20444;-81
2022/07/16 02:04:45;;;;;;;4.73;2.03;;;;;;;-143.84;58.80;45018.59;5092520;28;20436;-81
2022/07/16 02:07:12;;;;;;;2.93;1.80;;;;;;;-143.84;58.79;45016.69;5092799;28;20440;-81
2022/07/16 02:09:40;;;;;;;7.00;1.60;;;;;;;-143.84;58.48;44980.53;5092921;28;20444;-81
2022/07/16 02:12:07;;;;;;;2.27;1.37;;;;;;;-143.84;57.80;44990.03;5092616;28;20501;-81
2022/07/16 02:14:34;;;;;;;2.43;1.63;;;;;;;-143.84;57.73;44993.84;5092858;28;20801;-81
2022/07/16 02:17:03;;;;;;;3.20;1.60;;;;;;;-143.84;57.10;44988.13;5092911;28;20432;-81
2022/07/16 02:19:30;;;;;;;1.53;1.43;;;;;;;-143.84;58.19;45026.22;5092539;28;20436;-81
2022/07/16 02:21:57;;;;;;;3.20;1.40;;;;;;;-143.84;58.30;44997.66;5092046;28;21007;-81
2022/07/16 02:24:24;;;;;;;2.33;1.50;;;;;;;-143.84;58.04;44972.91;5092242;28;20466;-81
2022/07/16 02:26:51;;;;;;;2.80;1.60;;;;;;;-143.84;57.83;45003.38;5091981;28;20436;-81
2022/07/16 02:29:18;;;;;;;1.70;1.50;;;;;;;-143.84;57.82;44990.03;5092200;28;20436;-81
2022/07/16 02:31:45;;;;;;;9.97;1.90;;;;;;;-143.84;57.41;45030.03;5091751;28;20442;-81
2022/07/16 02:34:14;;;;;;;8.27;1.60;;;;;;;-143.84;57.17;44986.22;5092190;28;20992;-81
2022/07/16 02:36:41;;;;;;;1.57;1.47;;;;;;;-143.84;57.59;45007.19;5091830;28;20442;-81
2022/07/16 02:39:08;;;;;;;7.67;1.83;;;;;;;-143.84;58.25;45001.47;5092216;28;20440;-81
2022/07/16 02:41:36;;;;;;;2.60;1.80;;;;;;;-143.84;57.71;45001.47;5091566;28;20436;-81
2022/07/16 02:44:03;;;;;;;2.10;1.50;;;;;;;-143.84;58.10;45018.59;5092334;28;20870;-81
2022/07/16 02:46:30;;;;;;;3.30;2.30;;;;;;;-143.84;58.82;45024.31;5091744;28;20856;-81
2022/07/16 02:48:58;;;;;;;2.80;1.87;;;;;;;-143.84;59.07;44999.56;5091784;28;20821;-82
2022/07/16 02:51:26;;;;;;;2.47;1.90;;;;;;;-143.84;59.10;45003.38;5092074;28;20845;-81
2022/07/16 02:53:53;;;;;;;4.07;1.90;;;;;;;-143.84;58.99;44980.53;5091456;28;20513;-81
2022/07/16 02:56:20;;;;;;;3.40;1.90;;;;;;;-143.84;58.71;45007.19;5091969;28;20444;-81
2022/07/16 02:58:47;;;;;;;3.33;1.77;;;;;;;-143.84;58.59;45026.22;5091670;28;20479;-82
2022/07/16 03:01:15;;;;;;;4.07;2.20;;;;;;;-143.84;58.99;44984.31;5091755;28;20848;-81
2022/07/16 03:03:42;;;;;;;2.57;1.73;;;;;;;-143.84;59.04;45024.31;5091452;28;20497;-81
2022/07/16 03:06:09;;;;;;;4.03;1.87;;;;;;;-143.84;59.12;45030.03;5091825;28;21018;-81
2022/07/16 03:08:38;;;;;;;7.03;1.60;;;;;;;-143.84;58.67;45009.09;5092069;28;20431;-81
2022/07/16 03:11:05;;;;;;;2.23;1.40;;;;;;;-143.84;58.82;45018.59;5091212;28;20941;-82
2022/07/16 03:13:32;;;;;;;1.40;1.30;;;;;;;-143.84;59.24;45068.13;5091409;28;20980;-81
2022/07/16 03:15:59;;;;;;;2.53;1.90;;;;;;;-143.84;59.25;45010.97;5091459;28;20443;-81
2022/07/16 03:18:26;;;;;;;3.90;1.77;;;;;;;-143.84;59.51;45003.38;5091632;28;20447;-81
2022/07/16 03:20:53;;;;;;;5.20;1.60;;;;;;;-143.84;59.47;44988.13;5091496;28;20438;-81
2022/07/16 03:23:20;;;;;;;1.73;1.63;;;;;;;-143.84;60.23;44990.03;5091598;28;20436;-82
2022/07/16 03:25:49;;;;;;;5.80;2.43;;;;;;;-143.84;61.05;44999.56;5091520;28;20436;-82
2022/07/16 03:28:16;;;;;;;2.07;1.83;;;;;;;-143.84;62.30;44984.31;5091125;28;20452;-81
2022/07/16 03:30:44;;;;;;;4.83;1.83;;;;;;;-143.84;61.31;45014.78;5091595;28;20432;-81
2022/07/16 03:33:11;;;;;;;6.90;5.00;;;;;;;-143.84;61.08;44995.75;5091303;28;20479;-81
2022/07/16 03:35:38;;;;;;;4.73;4.43;;;;;;;-143.84;61.58;45028.13;5091159;28;20902;-81
2022/07/16 03:40:51;;;;;;;9.43;4.17;;;;;;;-143.84;60.22;44999.56;5088892;28;20514;-82
2022/07/16 03:43:18;;;;;;;6.60;4.03;;;;;;;-143.84;59.77;44986.22;5088644;28;20444;-82
2022/07/16 03:45:45;;;;;;;13.60;4.13;;;;;;;-143.84;58.79;45014.78;5089980;28;20505;-81
2022/07/16 03:48:12;;;;;;;2.80;2.60;;;;;;;-143.84;58.31;45005.28;5090943;28;20489;-81
2022/07/16 03:50:39;;;;;;;5.97;2.77;;;;;;;-143.84;58.56;44990.03;5090302;28;20954;-80
2022/07/16 03:53:06;;;;;;;3.07;2.87;;;;;;;-143.84;58.59;44980.53;5092410;28;20509;-79
2022/07/16 03:55:34;;;;;;;4.27;2.97;;;;;;;-143.84;56.94;44963.38;5095344;28;20460;-80
2022/07/16 03:58:02;;;;;;;6.80;4.33;;;;;;;-143.84;55.74;44984.31;5094869;28;20479;-81
2022/07/16 04:00:30;;;;;;;13.23;4.07;;;;;;;-143.84;54.50;44984.31;5095228;28;20432;-80
2022/07/16 04:02:57;;;;;;;15.47;4.80;;;;;;;-143.84;52.38;44951.97;5095399;28;20940;-81
2022/07/16 04:05:24;;;;;;;6.23;4.73;;;;;;;-143.84;50.01;44963.38;5094976;28;20473;-80
2022/07/16 04:07:52;;;;;;;7.03;5.53;;;;;;;-143.84;48.88;44953.88;5094652;28;20451;-81
2022/07/16 04:10:19;;;;;;;9.37;6.20;;;;;;;-143.84;48.28;44938.63;5095178;28;20432;-81
2022/07/16 04:12:46;;;;;;;8.23;6.40;;;;;;;-143.84;46.09;44955.75;5094985;28;20450;-81
2022/07/16 04:15:15;;;;;;;10.83;7.30;;;;;;;-143.84;40.41;44932.91;5095223;28;20446;-80
2022/07/16 04:17:42;;;;;;;15.23;6.73;;;;;;;-143.84;39.54;44942.44;5094182;28;20986;-80
2022/07/16 04:20:10;;;;;;;9.47;5.97;;;;;;;-143.84;39.52;44908.16;5094579;28;20440;-80
2022/07/16 04:22:37;;;;;;;7.53;5.43;;;;;;;-143.84;38.72;44908.16;5094036;28;20858;-81
2022/07/16 04:25:05;;;;;;;10.23;5.83;;;;;;;-143.84;38.01;44931.00;5093770;28;20921;-80
2022/07/16 04:29:28;;;;;;;7.27;5.17;;;;;;;-143.84;38.73;44913.88;5053381;27;1603378;-75
2022/07/16 04:31:55;;;;;;;9.00;4.73;;;;;;;-143.84;38.16;44915.78;5109385;28;20817;-73
2022/07/16 04:34:22;;;;;;;12.67;5.03;;;;;;;-143.84;38.29;44879.59;5126024;28;20469;-74
2022/07/16 04:36:50;;;;;;;6.07;5.03;;;;;;;-143.84;36.62;44910.06;5127027;28;20910;-74
2022/07/16 04:39:17;;;;;;;5.50;3.63;;;;;;;-143.84;35.90;44908.16;5126921;27;20442;-74
2022/07/16 04:41:44;;;;;;;3.90;3.37;;;;;;;-143.84;35.62;44883.41;5127100;28;20879;-74
2022/07/16 04:44:11;;;;;;;5.00;3.90;;;;;;;-143.84;35.71;44894.84;5126256;28;20430;-74
2022/07/16 04:46:40;;;;;;;5.93;3.23;;;;;;;-143.84;35.71;44892.94;5127230;28;20487;-74
2022/07/16 04:49:07;;;;;;;5.20;3.37;;;;;;;-143.84;35.13;44892.94;5126881;28;20527;-74
2022/07/16 04:51:34;;;;;;;7.30;2.67;;;;;;;-143.84;35.37;44892.94;5126924;28;20434;-74
2022/07/16 04:54:01;;;;;;;2.20;2.00;;;;;;;-143.84;35.19;44891.03;5126480;28;20438;-74
2022/07/16 04:56:28;;;;;;;3.30;3.00;;;;;;;-143.84;34.72;44906.25;5125909;28;20491;-75
2022/07/16 04:58:55;;;;;;;2.33;2.03;;;;;;;-143.84;34.80;44870.09;5125686;28;20532;-74
2022/07/16 05:01:22;;;;;;;4.27;2.70;;;;;;;-143.84;34.49;44847.22;5125774;28;20438;-74
2022/07/16 05:03:51;;;;;;;3.13;2.20;;;;;;;-143.84;34.69;44873.88;5125889;28;20430;-74
2022/07/16 05:06:18;;;;;;;2.80;2.27;;;;;;;-143.84;35.57;44868.19;5126393;28;20491;-74
2022/07/16 05:08:45;;;;;;;4.77;2.80;;;;;;;-143.84;35.33;44868.19;5125928;28;20474;-74
2022/07/16 05:11:13;;;;;;;8.70;2.40;;;;;;;-143.84;34.36;44864.38;5126489;28;20434;-74
2022/07/16 05:13:40;;;;;;;2.37;2.00;;;;;;;-143.84;33.82;44885.31;5126883;28;20441;-74
2022/07/16 05:16:07;;;;;;;2.80;1.70;;;;;;;-143.84;33.44;44870.09;5126692;28;20445;-74
2022/07/16 05:18:35;;;;;;;6.53;1.90;;;;;;;-143.84;33.73;44873.88;5126463;28;20927;-74
2022/07/16 05:21:03;;;;;;;14.70;2.90;;;;;;;-143.84;33.61;44851.03;5126120;28;20442;-74
2022/07/16 05:23:30;;;;;;;2.23;1.80;;;;;;;-143.84;33.50;44860.56;5126013;28;20495;-74
2022/07/16 05:25:57;;;;;;;7.60;2.40;;;;;;;-143.84;33.36;44852.94;5126400;28;20445;-74
2022/07/16 05:28:25;;;;;;;7.40;2.03;;;;;;;-143.84;32.51;44860.56;5125804;28;20501;-74
2022/07/16 05:30:52;;;;;;;3.20;1.57;;;;;;;-143.84;32.94;44805.34;5126301;28;20434;-74
2022/07/16 05:33:19;;;;;;;2.30;2.17;;;;;;;-143.84;31.85;44820.56;5125471;28;20430;-74
2022/07/16 05:35:46;;;;;;;5.13;2.63;;;;;;;-143.84;31.41;44868.19;5125167;28;20438;-74
2022/07/16 05:38:15;;;;;;;1.77;1.67;;;;;;;-143.84;32.03;44862.47;5125551;28;20789;-74
2022/07/16 05:40:42;;;;;;;3.90;2.50;;;;;;;-143.84;32.64;44845.31;5112776;28;20500;-74
2022/07/16 05:43:10;;;;;;;3.53;1.70;;;;;;;-143.84;31.36;44851.03;5112094;28;20438;-74
2022/07/16 05:45:38;;;;;;;2.37;1.80;;;;;;;-143.84;32.02;44822.47;5112440;28;20443;-74
2022/07/16 05:48:05;;;;;;;14.13;2.53;;;;;;;-143.84;32.66;44877.69;5112170;28;20531;-74
2022/07/16 05:50:33;;;;;;;7.47;1.93;;;;;;;-143.84;32.58;44832.00;5112041;28;20464;-74
2022/07/16 05:53:00;;;;;;;5.30;2.00;;;;;;;-143.84;33.04;44858.66;5112008;28;20524;-74
2022/07/16 05:55:29;;;;;;;3.60;2.40;;;;;;;-143.84;33.45;44887.22;5112057;28;20439;-74
2022/07/16 05:57:56;;;;;;;3.77;2.20;;;;;;;-143.84;33.34;44847.22;5112011;28;21009;-74
2022/07/16 06:00:24;;;;;;;14.33;3.00;;;;;;;-143.84;33.40;44841.53;5112171;28;20942;-74
2022/07/16 06:02:51;;;;;;;2.77;1.80;;;;;;;-143.84;33.54;44858.66;5112077;28;20427;-74
2022/07/16 06:05:18;;;;;;;8.23;2.23;;;;;;;-143.84;34.34;44843.44;5111892;28;20435;-74
2022/07/16 06:07:45;;;;;;;3.23;1.93;;;;;;;-143.84;33.41;44841.53;5112126;28;20431;-73
2022/07/16 06:10:13;;;;;;;3.03;2.67;;;;;;;-143.84;34.17;44894.84;5111510;28;20443;-74
2022/07/16 06:12:41;;;;;;;6.43;3.27;;;;;;;-143.84;35.02;44849.13;5111401;28;21136;-74
2022/07/16 06:15:11;;;;;;;11.37;3.27;;;;;;;-143.84;34.28;44841.53;5111440;28;20500;-74
2022/07/16 06:17:38;;;;;;;7.20;3.50;;;;;;;-143.84;36.24;44852.94;5111668;28;20441;-74
2022/07/16 06:20:07;;;;;;;6.70;4.00;;;;;;;-143.84;34.82;44847.22;5111787;28;20439;-74
2022/07/16 06:22:35;;;;;;;14.43;4.20;;;;;;;-143.84;34.50;44839.63;5111510;28;20465;-74
2022/07/16 06:25:02;;;;;;;10.20;7.00;;;;;;;-143.84;34.32;44830.09;5111567;28;20851;-74
2022/07/16 06:27:29;;;;;;;13.30;7.80;;;;;;;-143.84;33.90;44807.25;5110730;27;20555;-74
2022/07/16 06:30:03;;;;;;;10.53;7.47;;;;;;;-143.84;33.94;44841.53;5111191;28;20532;-74
2022/07/16 06:32:30;;;;;;;6.10;3.23;;;;;;;-143.84;32.34;44852.94;5111305;28;20435;-74
2022/07/16 06:34:57;;;;;;;4.37;2.83;;;;;;;-143.84;32.38;44845.31;5111121;28;20504;-74
2022/07/16 06:37:25;;;;;;;6.70;2.40;;;;;;;-143.84;32.71;44832.00;5110817;28;20430;-74
2022/07/16 06:39:52;;;;;;;9.10;2.27;;;;;;;-143.84;34.31;44841.53;5110693;28;20488;-74
2022/07/16 06:42:19;;;;;;;2.37;2.17;;;;;;;-143.84;33.03;44824.38;5110956;28;20835;-74
2022/07/16 06:44:46;;;;;;;2.20;1.73;;;;;;;-143.84;32.34;44868.19;5111405;28;20438;-74
2022/07/16 06:47:15;;;;;;;3.53;1.60;;;;;;;-143.84;33.64;44845.31;5110938;28;20453;-74
2022/07/16 06:49:43;;;;;;;4.80;1.67;;;;;;;-143.84;32.57;44812.97;5110707;28;20505;-74
2022/07/16 06:52:10;;;;;;;3.17;1.80;;;;;;;-143.84;31.56;44847.22;5109806;28;20435;-74
2022/07/16 06:54:37;;;;;;;2.03;1.50;;;;;;;-143.84;31.49;44854.84;5110804;28;20440;-74
2022/07/16 06:57:05;;;;;;;1.47;1.30;;;;;;;-143.84;33.29;44839.63;5110776;28;20439;-74
2022/07/16 06:59:32;;;;;;;3.00;1.73;;;;;;;-143.84;34.54;44858.66;5092442;28;20443;-74
2022/07/16 07:01:59;;;;;;;2.80;1.80;;;;;;;-143.84;35.00;44812.97;5110651;28;20450;-73
2022/07/16 07:04:27;;;;;;;8.70;1.93;;;;;;;-143.84;34.29;44849.13;5110755;28;20487;-74
2022/07/16 07:06:55;;;;;;;3.27;1.77;;;;;;;-143.84;35.25;44866.28;5111011;28;20499;-74
2022/07/16 07:09:22;;;;;;;5.90;1.80;;;;;;;-143.84;35.05;44845.31;5110946;28;20483;-74
2022/07/16 07:11:49;;;;;;;3.83;1.50;;;;;;;-143.84;34.32;44835.81;5111218;28;21129;-74
2022/07/16 07:14:16;;;;;;;2.80;1.40;;;;;;;-143.84;34.65;44851.03;5110455;28;20500;-74
2022/07/16 07:16:43;;;;;;;1.83;1.50;;;;;;;-143.84;35.27;44833.91;5110644;28;20430;-74
2022/07/16 07:19:10;;;;;;;5.57;1.43;;;;;;;-143.84;35.16;44832.00;5110030;28;20859;-74
2022/07/16 07:21:39;;;;;;;5.20;2.10;;;;;;;-143.84;34.77;44837.72;5110784;28;20462;-74
2022/07/16 07:24:08;;;;;;;3.80;1.93;;;;;;;-143.84;37.39;44860.56;5110459;28;20947;-74
2022/07/16 07:26:35;;;;;;;4.60;1.40;;;;;;;-143.84;37.97;44812.97;5110413;28;20442;-74
2022/07/16 07:29:02;;;;;;;1.83;1.60;;;;;;;-143.84;38.92;44841.53;5109986;28;20547;-73
2022/07/16 07:31:29;;;;;;;4.50;1.80;;;;;;;-143.84;40.69;44856.75;5108997;28;20439;-74
2022/07/16 07:33:56;;;;;;;12.23;2.33;;;;;;;-143.84;40.90;44832.00;5108802;28;20874;-73
2022/07/16 07:36:24;;;;;;;3.43;1.83;;;;;;;-143.84;40.58;44871.97;5108703;28;20846;-74
2022/07/16 07:38:52;;;;;;;4.90;1.80;;;;;;;-143.84;42.09;44898.66;5108262;28;20602;-73
2022/07/16 07:41:20;;;;;;;3.93;1.70;;;;;;;-143.84;42.00;44896.75;5108026;28;20831;-74
2022/07/16 07:43:47;;;;;;;4.20;2.23;;;;;;;-143.84;43.43;44896.75;5108441;28;20491;-74
2022/07/16 07:46:14;;;;;;;5.43;2.17;;;;;;;-143.84;44.47;44896.75;5109696;28;20956;-73
2022/07/16 07:48:41;;;;;;;4.43;2.40;;;;;;;-143.84;46.31;44879.59;5110014;28;21067;-74
2022/07/16 07:51:10;;;;;;;2.30;1.70;;;;;;;-143.84;45.57;44892.94;5110035;28;20500;-73
2022/07/16 07:53:37;;;;;;;4.30;2.07;;;;;;;-143.84;46.24;44883.41;5109961;28;20928;-74
2022/07/16 07:56:06;;;;;;;6.10;1.70;;;;;;;-143.84;45.26;44871.97;5110132;28;20431;-73
2022/07/16 07:58:34;;;;;;;1.77;1.67;;;;;;;-143.84;43.21;44871.97;5109873;28;20439;-74
2022/07/16 08:01:02;;;;;;;3.10;1.70;;;;;;;-143.84;45.07;44894.84;5109574;28;21014;-73
2022/07/16 08:03:29;;;;;;;3.53;2.00;;;;;;;-143.84;45.17;44904.34;5109426;28;20478;-74
2022/07/16 08:05:56;;;;;;;5.83;1.97;;;;;;;-143.84;44.73;44889.13;5109921;28;20446;-74
2022/07/16 08:08:23;;;;;;;2.50;2.07;;;;;;;-143.84;45.89;44879.59;5109536;28;20472;-74
2022/07/16 08:10:51;;;;;;;4.70;2.30;;;;;;;-143.84;45.26;44866.28;5109770;28;20497;-74
2022/07/16 08:13:19;;;;;;;3.70;1.67;;;;;;;-143.84;45.07;44894.84;5109723;28;20431;-73
2022/07/16 08:15:47;;;;;;;2.43;1.90;;;;;;;-143.84;46.28;44881.50;5108889;28;20975;-73
2022/07/16 08:18:14;;;;;;;4.17;1.90;;;;;;;-143.84;44.71;44870.09;5109054;28;20431;-73
2022/07/16 08:20:41;;;;;;;2.30;2.07;;;;;;;-143.84;44.22;44898.66;5108980;28;20818;-74
2022/07/16 08:23:08;;;;;;;2.33;1.70;;;;;;;-143.84;46.60;44885.31;5109513;28;20805;-74
2022/07/16 08:25:46;;;;;;;2.50;1.90;;;;;;;-143.84;46.09;44862.47;5109742;28;20903;-75
2022/07/16 08:28:15;;;;;;;3.10;1.90;;;;;;;-143.84;43.43;44883.41;5116344;27;20580;-74
2022/07/16 08:30:44;;;;;;;3.57;2.00;;;;;;;-143.84;45.01;44911.97;5130033;28;20464;-74
2022/07/16 08:33:11;;;;;;;3.30;1.83;;;;;;;-143.84;45.29;44900.53;5129784;28;20449;-74
2022/07/16 08:35:38;;;;;;;4.53;1.90;;;;;;;-143.84;45.06;44887.22;5129875;28;20452;-74
2022/07/16 08:38:05;;;;;;;2.53;1.83;;;;;;;-143.84;47.00;44885.31;5129764;28;20434;-74
2022/07/16 08:40:34;;;;;;;3.90;2.10;;;;;;;-143.84;45.78;44858.66;5130261;28;20438;-74
2022/07/16 08:43:02;;;;;;;2.40;1.60;;;;;;;-143.84;45.08;44860.56;5129950;28;20517;-75
2022/07/16 08:45:30;;;;;;;9.53;2.70;;;;;;;-143.84;46.68;44885.31;5129637;28;20974;-75
2022/07/16 08:48:00;;;;;;;3.00;1.80;;;;;;;-143.84;47.66;44892.94;5130037;28;21007;-74
2022/07/16 08:50:27;;;;;;;5.23;1.80;;;;;;;-143.84;46.39;44877.69;5130110;28;20470;-73
2022/07/16 08:52:54;;;;;;;5.07;2.13;;;;;;;-143.84;45.76;44879.59;5130095;28;20422;-74
2022/07/16 08:55:24;;;;;;;2.60;2.23;;;;;;;-143.84;45.46;44854.84;5130326;28;20431;-74
2022/07/16 08:57:52;;;;;;;2.03;1.70;;;;;;;-143.84;46.28;44837.72;5130232;28;20435;-74
2022/07/16 09:00:21;;;;;;;5.20;2.50;;;;;;;-143.84;44.83;44866.28;5130339;28;20498;-74
2022/07/16 09:02:48;;;;;;;4.20;1.87;;;;;;;-143.84;42.64;44845.31;5130436;28;20427;-74
2022/07/16 09:05:17;;;;;;;2.10;1.60;;;;;;;-143.84;46.43;44871.97;5130509;28;20505;-74
2022/07/16 09:07:45;;;;;;;2.83;1.97;;;;;;;-143.84;45.10;44871.97;5130316;28;20942;-73
2022/07/16 09:10:13;;;;;;;3.33;1.70;;;;;;;-143.84;45.00;44858.66;5130106;28;20506;-73
2022/07/16 09:12:42;;;;;;;2.50;1.90;;;;;;;-143.84;47.08;44854.84;5129731;28;20457;-71
2022/07/16 09:15:28;;;;;;;7.67;2.00;;;;;;;-143.84;48.82;44864.38;5131299;27;20943;-70
2022/07/16 09:18:15;;;;;;;3.47;2.07;;;;;;;-143.84;47.65;44887.22;5133566;27;20440;-72
2022/07/16 09:20:47;;;;;;;2.80;2.33;;;;;;;-143.84;48.17;44887.22;5133734;27;20938;-73
2022/07/16 09:23:26;;;;;;;10.70;2.20;;;;;;;-143.84;49.20;44906.25;5133762;27;20450;-73
2022/07/16 09:25:55;;;;;;;4.03;1.87;;;;;;;-143.84;46.88;44896.75;5133382;27;20467;-73
2022/07/16 09:28:25;;;;;;;3.67;1.90;;;;;;;-143.84;46.41;44889.13;5133260;27;20470;-73
2022/07/16 09:30:52;;;;;;;3.23;2.13;;;;;;;-143.84;45.99;44871.97;5133127;27;20488;-72
2022/07/16 09:33:21;;;;;;;3.53;2.00;;;;;;;-143.84;48.43;44925.31;5133007;27;20442;-72
2022/07/16 09:36:04;;;;;;;3.33;2.10;;;;;;;-143.84;48.79;44902.44;5133060;27;20804;-72
2022/07/16 09:38:46;;;;;;;3.17;2.40;;;;;;;-143.84;48.34;44911.97;5132865;27;20499;-73
2022/07/16 09:41:14;;;;;;;3.00;1.83;;;;;;;-143.84;49.42;44913.88;5132601;27;20446;-73
2022/07/16 09:43:43;;;;;;;4.80;2.53;;;;;;;-143.84;50.36;44921.50;5132681;27;21093;-72
2022/07/16 09:46:16;;;;;;;2.63;2.43;;;;;;;-143.84;53.00;44911.97;5132655;27;21433;-73
2022/07/16 09:48:44;;;;;;;10.13;2.40;;;;;;;-143.84;53.28;44913.88;5132113;27;20445;-73
2022/07/16 09:51:19;;;;;;;4.90;2.50;;;;;;;-143.84;53.24;44910.06;5132095;27;20991;-72
2022/07/16 09:53:47;;;;;;;5.53;2.87;;;;;;;-143.84;51.76;44896.75;5132246;27;20441;-73
2022/07/16 09:56:17;;;;;;;4.17;2.47;;;;;;;-143.84;51.21;44900.53;5132416;27;20550;-73
2022/07/16 09:58:48;;;;;;;3.20;2.40;;;;;;;-143.84;50.83;44885.31;5132406;27;20494;-73
2022/07/16 10:01:16;;;;;;;1.83;1.63;;;;;;;-143.84;47.36;44889.13;5132306;27;20440;-72
2022/07/16 10:03:44;;;;;;;2.57;1.80;;;;;;;-143.84;47.46;44881.50;5131873;27;20885;-72
2022/07/16 10:06:11;;;;;;;13.23;2.70;;;;;;;-143.84;44.76;44891.03;5132020;27;20434;-72
2022/07/16 10:08:41;;;;;;;6.93;2.00;;;;;;;-143.84;45.95;44889.13;5132172;27;20438;-72
2022/07/16 10:11:10;;;;;;;5.93;2.23;;;;;;;-143.84;47.05;44875.78;5132108;27;20478;-73
2022/07/16 10:13:41;;;;;;;5.10;2.40;;;;;;;-143.84;49.52;44898.66;5132239;27;20461;-72
2022/07/16 10:16:09;;;;;;;3.20;2.10;;;;;;;-143.84;48.74;44885.31;5132690;27;20438;-73
2022/07/16 10:18:41;;;;;;;1.80;1.70;;;;;;;-143.84;48.57;44910.06;5132331;27;20770;-73
2022/07/16 10:21:11;;;;;;;7.87;1.80;;;;;;;-143.84;47.94;44908.16;5132461;27;20473;-73
2022/07/16 10:23:47;;;;;;;10.30;2.70;;;;;;;-143.84;49.14;44900.53;5132426;27;20495;-72
2022/07/16 10:26:16;;;;;;;2.20;2.00;;;;;;;-143.84;47.40;44894.84;5132245;27;20486;-72
2022/07/16 10:28:46;;;;;;;2.17;1.80;;;;;;;-143.84;49.82;44896.75;5132100;27;20478;-73
2022/07/16 10:31:40;;;;;;;4.87;1.83;;;;;;;-143.84;49.39;44885.31;5132208;27;20473;-73
2022/07/16 10:34:40;;;;;;;4.70;1.87;;;;;;;-143.84;46.07;44889.13;5132641;27;20438;-73
2022/07/16 10:37:11;;;;;;;4.67;1.57;;;;;;;-143.84;46.40;44908.16;5132391;27;20430;-73
2022/07/16 10:40:02;;;;;;;4.90;1.90;;;;;;;-143.84;50.67;44892.94;5132320;27;20494;-73
2022/07/16 10:42:29;;;;;;;4.33;1.83;;;;;;;-143.84;46.52;44927.19;5132451;27;20434;-73
2022/07/16 10:44:57;;;;;;;2.17;1.83;;;;;;;-143.84;48.82;44917.69;5132306;27;20499;-73
2022/07/16 10:47:46;;;;;;;6.23;2.00;;;;;;;-143.84;49.53;44915.78;5132133;27;20434;-73
2022/07/16 10:50:18;;;;;;;8.17;2.10;;;;;;;-143.84;52.21;44892.94;5131688;27;20478;-73
2022/07/16 10:52:48;;;;;;;2.23;2.10;;;;;;;-143.84;49.40;44929.09;5131841;27;20828;-72
2022/07/16 10:55:32;;;;;;;9.90;2.50;;;;;;;-143.84;51.07;44919.59;5132105;27;20541;-72
2022/07/16 10:57:59;;;;;;;2.93;1.70;;;;;;;-143.84;48.17;44898.66;5131271;27;21014;-73
2022/07/16 11:00:27;;;;;;;4.33;2.30;;;;;;;-143.84;51.21;44915.78;5131533;27;20495;-73
2022/07/16 11:03:00;;;;;;;2.77;2.00;;;;;;;-143.84;48.92;44902.44;5131528;27;20816;-73
2022/07/16 11:05:29;;;;;;;4.27;2.27;;;;;;;-143.84;50.93;44900.53;5131522;27;20528;-73
2022/07/16 11:08:07;;;;;;;3.33;1.70;;;;;;;-143.84;52.24;44932.91;5131365;27;20442;-73
2022/07/16 11:10:35;;;;;;;3.07;1.87;;;;;;;-143.84;51.40;44929.09;5131538;27;20572;-73
2022/07/16 11:13:03;;;;;;;3.73;1.80;;;;;;;-143.84;52.80;44927.19;5131484;27;20442;-73
2022/07/16 11:15:30;;;;;;;11.83;2.27;;;;;;;-143.84;54.32;44911.97;5131288;27;20431;-73
2022/07/16 11:17:57;;;;;;;9.43;1.90;;;;;;;-143.84;53.61;44894.84;5131344;27;20492;-73
2022/07/16 11:20:37;;;;;;;3.33;1.50;;;;;;;-143.84;51.34;44889.13;5131520;27;20450;-73
2022/07/16 11:23:05;;;;;;;4.27;1.63;;;;;;;-143.84;52.07;44904.34;5131185;27;20479;-73
2022/07/16 11:25:33;;;;;;;3.63;1.60;;;;;;;-143.84;50.49;44919.59;5130952;27;20517;-73
2022/07/16 11:28:03;;;;;;;8.83;4.33;;;;;;;-143.84;50.39;44894.84;5130943;27;20481;-72
2022/07/16 11:30:31;;;;;;;2.70;1.73;;;;;;;-143.84;49.87;44894.84;5131069;27;20504;-73
2022/07/16 11:32:59;;;;;;;5.67;1.70;;;;;;;-143.84;48.36;44911.97;5131167;27;20456;-73